createdAt,value
2022-09-12T04:51:52.741Z,1.5
2022-09-12T04:54:52.947Z,1.3
2022-09-12T04:57:53.140Z,1.1
2022-09-12T05:00:53.530Z,1
2022-09-12T05:03:53.620Z,1
2022-09-12T05:06:53.832Z,1
2022-09-12T05:09:54.061Z,1.1
2022-09-12T05:12:54.364Z,1.4
2022-09-12T05:15:54.510Z,1.6
2022-09-12T05:18:54.710Z,1.9
2022-09-12T05:21:54.947Z,2.2
2022-09-12T05:25:00.179Z,2.5
2022-09-12T05:27:55.392Z,2.8
2022-09-12T05:30:55.645Z,3.1
2022-09-12T05:33:55.819Z,4.4
2022-09-12T05:36:56.046Z,4.7
2022-09-12T05:39:51.542Z,5
2022-09-12T05:42:51.510Z,5.2
2022-09-12T05:45:51.775Z,5.4
2022-09-12T05:48:55.914Z,5.7
2022-09-12T05:51:52.153Z,5.9
2022-09-12T05:54:52.383Z,6.1
2022-09-12T05:57:52.600Z,5.4
2022-09-12T06:00:52.821Z,5.6
2022-09-12T06:03:53.258Z,5.9
2022-09-12T06:06:53.267Z,6.2
2022-09-12T06:09:53.483Z,6.7
2022-09-12T06:12:53.715Z,7
2022-09-12T06:15:53.939Z,7.3
2022-09-12T06:18:54.169Z,7.7
2022-09-12T06:21:54.371Z,8.1
2022-09-12T06:24:57.858Z,8.5
2022-09-12T06:27:54.824Z,9
2022-09-12T06:30:55.093Z,9.4
2022-09-12T06:33:55.258Z,9.8
2022-09-12T06:36:55.486Z,10.2
2022-09-12T06:39:56.119Z,10.7
2022-09-12T06:42:55.918Z,11.3
2022-09-12T06:45:51.167Z,11.9
2022-09-12T06:48:51.380Z,12.5
2022-09-12T06:51:51.585Z,13.1
2022-09-12T06:54:51.817Z,13.9
2022-09-12T06:57:52.026Z,14.6
2022-09-12T07:00:56.018Z,15.3
2022-09-12T07:03:52.480Z,15.9
2022-09-12T07:06:52.737Z,16.8
2022-09-12T07:09:52.920Z,17.5
2022-09-12T07:12:53.143Z,18.3
2022-09-12T07:15:53.506Z,19.2
2022-09-12T07:18:53.584Z,19.9
2022-09-12T07:21:58.043Z,20.8
2022-09-12T07:24:54.025Z,21.8
2022-09-12T07:27:54.242Z,22.7
2022-09-12T07:31:09.503Z,23.4
2022-09-12T07:33:54.983Z,24.4
2022-09-12T07:36:54.917Z,25.1
2022-09-12T07:39:55.156Z,25.7
2022-09-12T07:42:55.356Z,26.3
2022-09-12T07:45:55.664Z,26.7
2022-09-12T07:48:55.802Z,27
2022-09-12T07:51:51.055Z,27.2
2022-09-12T07:54:51.251Z,27.3
2022-09-12T07:57:51.461Z,27.2
2022-09-12T08:01:01.758Z,27.1
2022-09-12T08:03:51.919Z,27
2022-09-12T08:06:52.339Z,26.9
2022-09-12T08:09:52.340Z,26.7
2022-09-12T08:12:52.589Z,26.5
2022-09-12T08:15:52.922Z,26.8
2022-09-12T08:18:53.028Z,27.3
2022-09-12T08:21:53.241Z,28.2
2022-09-12T08:24:53.478Z,29.3
2022-09-12T08:27:53.696Z,30.5
2022-09-12T08:30:53.942Z,32.2
2022-09-12T08:33:54.135Z,34.5
2022-09-12T08:36:54.371Z,37.4
2022-09-12T08:39:54.628Z,40.3
2022-09-12T08:42:54.810Z,43.6
2022-09-12T08:45:55.055Z,46.6
2022-09-12T08:48:55.246Z,49.7
2022-09-12T08:51:55.479Z,53.1
2022-09-12T08:54:55.690Z,56.7
2022-09-12T08:57:50.906Z,60
2022-09-12T09:00:51.120Z,62.6
2022-09-12T09:03:51.355Z,64.7
2022-09-12T09:06:51.640Z,66.5
2022-09-12T09:09:51.810Z,67.8
2022-09-12T09:12:52.238Z,69.2
2022-09-12T09:15:52.294Z,70.5
2022-09-12T09:18:52.518Z,72.6
2022-09-12T09:21:52.696Z,76.3
2022-09-12T09:24:52.933Z,81
2022-09-12T09:27:53.150Z,87.3
2022-09-12T09:30:53.399Z,92.4
2022-09-12T09:33:53.574Z,98
2022-09-12T09:36:53.804Z,105.8
2022-09-12T09:39:54.084Z,115.4
2022-09-12T09:42:54.455Z,122.5
2022-09-12T09:45:54.551Z,129.2
2022-09-12T09:48:54.706Z,133.2
2022-09-12T09:51:57.664Z,134.8
2022-09-12T09:54:55.159Z,137.7
2022-09-12T09:57:55.365Z,140.3
2022-09-12T10:00:56.810Z,140.4
2022-09-12T10:03:50.815Z,139.3
2022-09-12T10:06:51.048Z,137.8
2022-09-12T10:09:51.266Z,137.5
2022-09-12T10:12:51.475Z,143.4
2022-09-12T10:15:51.953Z,152.3
2022-09-12T10:18:51.923Z,160.1
2022-09-12T10:21:52.134Z,167.7
2022-09-12T10:24:52.365Z,174.2
2022-09-12T10:27:52.606Z,176.9
2022-09-12T10:30:57.875Z,181.6
2022-09-12T10:33:53.176Z,186
2022-09-12T10:36:53.263Z,188.8
2022-09-12T10:39:53.544Z,190.2
2022-09-12T10:42:53.712Z,194
2022-09-12T10:45:54.013Z,191.9
2022-09-12T10:48:54.149Z,194.6
2022-09-12T10:51:54.492Z,204.7
2022-09-12T10:54:54.804Z,208.8
2022-09-12T10:57:54.820Z,207.2
2022-09-12T11:00:55.051Z,200.1
2022-09-12T11:03:55.260Z,190.7
2022-09-12T11:06:55.468Z,177.4
2022-09-12T11:09:50.692Z,169.1
2022-09-12T11:12:50.905Z,155.9
2022-09-12T11:15:51.158Z,139.8
2022-09-12T11:18:51.546Z,127.7
2022-09-12T11:21:51.527Z,119.7
2022-09-12T11:24:51.796Z,114.7
2022-09-12T11:27:52.010Z,110.9
2022-09-12T11:30:52.274Z,106.1
2022-09-12T11:33:56.475Z,103.6
2022-09-12T11:36:52.763Z,105.1
2022-09-12T11:39:55.608Z,102.5
2022-09-12T11:42:53.097Z,98.2
2022-09-12T11:45:53.376Z,95.2
2022-09-12T11:48:53.548Z,90.7
2022-09-12T11:51:53.769Z,87.7
2022-09-12T11:54:54.196Z,86.7
2022-09-12T11:57:54.208Z,84.1
2022-09-12T12:00:54.439Z,78
2022-09-12T12:03:54.685Z,73.6
2022-09-12T12:06:55.090Z,72
2022-09-12T12:09:55.120Z,67.7
2022-09-12T12:12:55.334Z,65.3
2022-09-12T12:15:50.587Z,62.8
2022-09-12T12:18:55.774Z,61.8
2022-09-12T12:21:50.991Z,60.8
2022-09-12T12:24:51.420Z,60.3
2022-09-12T12:27:51.468Z,60.6
2022-09-12T12:30:51.732Z,61.6
2022-09-12T12:33:51.881Z,63.7
2022-09-12T12:36:57.218Z,64.6
2022-09-12T12:39:52.438Z,64.3
2022-09-12T12:42:52.554Z,65
2022-09-12T12:45:52.810Z,65.5
2022-09-12T12:48:53.002Z,65.4
2022-09-12T12:51:53.213Z,64.3
2022-09-12T12:54:53.439Z,62.4
2022-09-12T12:57:53.642Z,59.8
2022-09-12T13:00:53.896Z,57.2
2022-09-12T13:03:54.116Z,54.8
2022-09-12T13:06:54.338Z,51.2
2022-09-12T13:09:54.554Z,48.2
2022-09-12T13:12:54.981Z,46.2
2022-09-12T13:15:55.107Z,45.1
2022-09-12T13:18:55.227Z,44.1
2022-09-12T13:21:55.486Z,43
2022-09-12T13:24:50.675Z,43
2022-09-12T13:27:56.129Z,43.5
2022-09-12T13:30:51.149Z,44.2
2022-09-12T13:33:51.336Z,45.6
2022-09-12T13:36:51.567Z,47.1
2022-09-12T13:39:51.824Z,48.6
2022-09-12T13:42:52.009Z,49.8
2022-09-12T13:45:52.234Z,50.5
2022-09-12T13:48:52.460Z,50.1
2022-09-12T13:51:52.697Z,49.2
2022-09-12T13:54:52.948Z,47.7
2022-09-12T13:57:53.111Z,45.1
2022-09-12T14:00:53.342Z,42
2022-09-12T14:03:58.040Z,38.7
2022-09-12T14:06:53.786Z,36.1
2022-09-12T14:09:54.006Z,34.4
2022-09-12T14:12:54.240Z,33.6
2022-09-12T14:15:54.503Z,33.4
2022-09-12T14:18:54.693Z,39.5
2022-09-12T14:21:54.907Z,42.6
2022-09-12T14:24:55.126Z,52.6
2022-09-12T14:27:55.323Z,56.4
2022-09-12T14:30:55.799Z,65.3
2022-09-12T14:33:55.798Z,95
2022-09-12T14:36:51.022Z,94.3
2022-09-12T14:39:51.285Z,95.2
2022-09-12T14:42:51.500Z,87.8
2022-09-12T14:45:51.766Z,83.3
2022-09-12T14:48:51.905Z,72.1
2022-09-12T14:51:52.119Z,67.6
2022-09-12T14:54:52.343Z,58
2022-09-12T14:57:52.526Z,27.2
2022-09-12T15:00:57.780Z,27.3
2022-09-12T15:03:53.353Z,24.1
2022-09-12T15:06:53.231Z,22.9
2022-09-12T15:09:53.437Z,22.1
2022-09-12T15:12:53.667Z,21.4
2022-09-12T15:15:53.959Z,20.4
2022-09-12T15:18:54.084Z,19.5
2022-09-12T15:21:54.308Z,19
2022-09-12T15:24:54.536Z,17.9
2022-09-12T15:27:54.758Z,18.5
2022-09-12T15:31:00.251Z,19.7
2022-09-12T15:33:55.181Z,21.7
2022-09-12T15:36:55.439Z,24
2022-09-12T15:39:55.630Z,26.1
2022-09-12T15:42:55.846Z,27.8
2022-09-12T15:45:56.136Z,29.3
2022-09-12T15:48:51.267Z,30.2
2022-09-12T15:51:51.488Z,30.5
2022-09-12T15:54:51.712Z,30.3
2022-09-12T15:57:51.926Z,29.3
2022-09-12T16:00:52.165Z,28.1
2022-09-12T16:03:52.365Z,27.2
2022-09-12T16:06:52.618Z,25.3
2022-09-12T16:09:52.807Z,23.3
2022-09-12T16:12:53.036Z,21.6
2022-09-12T16:15:53.323Z,19.8
2022-09-12T16:18:53.473Z,18
2022-09-12T16:21:53.695Z,16.4
2022-09-12T16:24:53.906Z,14.5
2022-09-12T16:27:54.146Z,12.6
2022-09-12T16:30:54.396Z,11.6
2022-09-12T16:33:54.576Z,10.6
2022-09-12T16:36:55.036Z,9.7
2022-09-12T16:39:55.055Z,9
2022-09-12T16:42:55.246Z,8.2
2022-09-12T16:45:55.498Z,7.3
2022-09-12T16:48:52.428Z,6.7
2022-09-12T16:51:50.894Z,5.9
2022-09-12T16:54:56.118Z,5.5
2022-09-12T16:57:51.329Z,5.1
2022-09-12T17:00:56.552Z,4.7
2022-09-12T17:03:51.763Z,4.3
2022-09-12T17:06:51.999Z,3.9
2022-09-12T17:09:52.210Z,3.6
2022-09-12T17:12:52.445Z,3.3
2022-09-12T17:15:52.663Z,3
2022-09-12T17:18:52.856Z,2.7
2022-09-12T17:21:53.089Z,2.4
2022-09-12T17:24:53.313Z,2.2
2022-09-12T17:27:53.608Z,1.9
2022-09-12T17:30:53.881Z,1.7
2022-09-12T17:33:53.974Z,1.7
2022-09-12T17:36:54.221Z,1.7
2022-09-12T17:39:54.470Z,1.7
2022-09-12T17:42:54.639Z,1.7
2022-09-12T17:45:54.980Z,1.7
2022-09-12T17:48:55.103Z,1.7
2022-09-12T17:51:55.286Z,1.7
2022-09-12T17:54:55.526Z,1.7
2022-09-12T17:57:50.722Z,1.7
2022-09-12T18:00:50.939Z,1.7
2022-09-12T18:03:51.158Z,1.7
2022-09-12T18:06:51.388Z,1.7
2022-09-12T18:09:51.692Z,1.7
2022-09-12T18:12:51.830Z,1.7
2022-09-12T18:15:52.071Z,1.7
2022-09-12T18:18:52.266Z,1.7
2022-09-12T18:21:52.539Z,1.7
2022-09-12T18:24:52.712Z,1.7
2022-09-12T18:27:52.919Z,1.7
2022-09-12T18:30:53.192Z,1.7
